createdAt,value
2018-09-25T00:00:42.893Z,5.00
2018-09-25T00:03:17.438Z,5.00
2018-09-25T00:05:51.942Z,5.00
2018-09-25T00:08:26.342Z,5.00
2018-09-25T00:11:00.754Z,4.90
2018-09-25T00:13:36.491Z,4.80
2018-09-25T00:16:11.061Z,4.80
2018-09-25T00:18:46.889Z,4.70
2018-09-25T00:21:21.233Z,4.70
2018-09-25T00:23:55.613Z,4.70
2018-09-25T00:26:30.438Z,4.80
2018-09-25T00:29:04.927Z,4.80
2018-09-25T00:31:39.478Z,4.90
2018-09-25T00:34:13.962Z,4.90
2018-09-25T00:36:48.436Z,4.90
2018-09-25T00:39:22.987Z,4.80
2018-09-25T00:41:58.523Z,4.80
2018-09-25T00:44:32.911Z,4.80
2018-09-25T00:47:07.986Z,4.80
2018-09-25T00:49:42.317Z,4.90
2018-09-25T00:52:16.885Z,4.90
2018-09-25T00:54:51.410Z,5.00
2018-09-25T00:57:26.804Z,5.00
2018-09-25T01:00:01.339Z,4.90
2018-09-25T01:02:37.136Z,4.80
2018-09-25T01:05:11.741Z,4.70
2018-09-25T01:07:46.175Z,4.60
2018-09-25T01:10:20.590Z,4.60
2018-09-25T01:12:57.671Z,4.60
2018-09-25T01:15:32.030Z,4.60
2018-09-25T01:18:06.539Z,4.60
2018-09-25T01:20:41.226Z,4.60
2018-09-25T01:23:16.450Z,4.60
2018-09-25T01:25:50.919Z,4.60
2018-09-25T01:28:25.294Z,4.50
2018-09-25T01:31:00.057Z,4.50
2018-09-25T01:33:34.664Z,4.60
2018-09-25T01:36:09.711Z,4.60
2018-09-25T01:38:44.152Z,4.70
2018-09-25T01:41:18.691Z,4.60
2018-09-25T01:43:54.158Z,4.60
2018-09-25T01:46:28.701Z,4.40
2018-09-25T01:49:04.071Z,4.40
2018-09-25T01:51:40.193Z,4.30
2018-09-25T01:54:14.717Z,4.30
2018-09-25T01:56:49.193Z,4.30
2018-09-25T01:59:23.933Z,4.40
2018-09-25T02:01:59.379Z,4.40
2018-09-25T02:04:38.575Z,4.30
2018-09-25T02:07:12.978Z,4.30
2018-09-25T02:09:47.520Z,4.20
2018-09-25T02:12:21.908Z,4.10
2018-09-25T02:14:56.417Z,4.10
2018-09-25T02:17:30.784Z,4.10
2018-09-25T02:20:05.931Z,4.10
2018-09-25T02:22:40.950Z,4.20
2018-09-25T02:25:15.501Z,4.20
2018-09-25T02:27:50.288Z,4.10
2018-09-25T02:30:24.910Z,4.10
2018-09-25T02:32:59.384Z,4.10
2018-09-25T02:35:33.842Z,4.10
2018-09-25T02:38:08.336Z,4.10
2018-09-25T02:40:42.810Z,4.10
2018-09-25T02:43:18.778Z,4.00
2018-09-25T02:45:53.646Z,4.00
2018-09-25T02:48:28.239Z,4.00
2018-09-25T02:51:03.170Z,4.10
2018-09-25T02:53:37.691Z,4.10
2018-09-25T02:56:12.302Z,4.20
2018-09-25T02:58:46.800Z,4.20
2018-09-25T03:01:21.210Z,4.10
2018-09-25T03:03:56.728Z,4.00
2018-09-25T03:06:31.232Z,3.90
2018-09-25T03:09:05.740Z,3.80
2018-09-25T03:11:41.198Z,3.70
2018-09-25T03:14:15.565Z,3.70
2018-09-25T03:16:50.133Z,3.60
2018-09-25T03:19:25.368Z,3.60
2018-09-25T03:22:02.554Z,3.50
2018-09-25T03:24:37.111Z,3.50
2018-09-25T03:27:11.719Z,3.50
2018-09-25T03:29:46.870Z,3.60
2018-09-25T03:32:23.533Z,3.70
2018-09-25T03:34:57.937Z,3.70
2018-09-25T03:37:32.426Z,3.80
2018-09-25T03:40:06.827Z,3.80
2018-09-25T03:42:41.525Z,3.80
2018-09-25T03:45:16.086Z,3.80
2018-09-25T03:47:50.740Z,3.70
2018-09-25T03:50:25.117Z,3.60
2018-09-25T03:52:59.687Z,3.60
2018-09-25T03:55:34.345Z,3.50
2018-09-25T03:58:09.068Z,3.50
2018-09-25T04:00:43.462Z,3.50
2018-09-25T04:03:18.000Z,3.50
2018-09-25T04:05:52.476Z,3.40
2018-09-25T04:08:26.856Z,3.30
2018-09-25T04:11:01.331Z,3.30
2018-09-25T04:13:35.684Z,3.30
2018-09-25T04:16:10.100Z,3.30
2018-09-25T04:18:44.480Z,3.20
2018-09-25T04:21:18.907Z,3.10
2018-09-25T04:23:53.272Z,3.10
2018-09-25T04:26:27.846Z,3.10
2018-09-25T04:29:02.382Z,3.10
2018-09-25T04:31:37.814Z,3.10
2018-09-25T04:34:12.272Z,3.10
2018-09-25T04:36:46.630Z,3.20
2018-09-25T04:39:21.112Z,3.20
2018-09-25T04:41:55.550Z,3.20
2018-09-25T04:44:29.924Z,3.20
2018-09-25T04:47:04.440Z,3.20
2018-09-25T04:49:38.941Z,3.10
2018-09-25T04:52:13.382Z,3.10
2018-09-25T04:54:48.033Z,3.00
2018-09-25T04:57:23.092Z,2.90
2018-09-25T04:59:57.970Z,2.90
2018-09-25T05:02:32.680Z,2.90
2018-09-25T05:05:07.723Z,2.90
2018-09-25T05:07:42.505Z,2.90
2018-09-25T05:10:17.141Z,2.80
2018-09-25T05:12:52.671Z,2.80
2018-09-25T05:15:27.199Z,2.80
2018-09-25T05:18:01.728Z,2.80
2018-09-25T05:20:36.205Z,2.80
2018-09-25T05:23:11.867Z,2.80
2018-09-25T05:25:46.235Z,2.80
2018-09-25T05:28:20.623Z,2.90
2018-09-25T05:30:55.176Z,3.00
2018-09-25T05:33:31.646Z,2.90
2018-09-25T05:36:06.550Z,3.00
2018-09-25T05:38:41.596Z,2.90
2018-09-25T05:41:16.085Z,2.80
2018-09-25T05:43:50.586Z,2.80
2018-09-25T05:46:25.133Z,2.80
2018-09-25T05:48:59.623Z,2.80
2018-09-25T05:51:34.194Z,2.80
2018-09-25T05:54:08.575Z,2.90
2018-09-25T05:56:43.073Z,3.00
2018-09-25T05:59:17.599Z,3.10
2018-09-25T06:01:55.214Z,3.20
2018-09-25T06:04:29.725Z,3.20
2018-09-25T06:07:04.403Z,3.30
2018-09-25T06:09:38.968Z,3.50
2018-09-25T06:12:14.401Z,3.60
2018-09-25T06:14:48.811Z,3.70
2018-09-25T06:17:24.415Z,3.80
2018-09-25T06:19:58.877Z,3.90
2018-09-25T06:22:33.375Z,3.90
2018-09-25T06:25:07.955Z,4.00
2018-09-25T06:27:42.614Z,4.10
2018-09-25T06:30:17.081Z,4.10
2018-09-25T06:32:52.275Z,4.20
2018-09-25T06:35:27.814Z,4.30
2018-09-25T06:38:02.344Z,4.50
2018-09-25T06:40:36.838Z,4.60
2018-09-25T06:43:11.344Z,4.70
2018-09-25T06:45:45.734Z,4.70
2018-09-25T06:48:20.244Z,4.80
2018-09-25T06:50:54.634Z,4.90
2018-09-25T06:53:29.205Z,5.10
2018-09-25T06:56:03.706Z,5.20
2018-09-25T06:58:38.280Z,5.30
2018-09-25T07:01:12.775Z,5.40
2018-09-25T07:03:47.268Z,5.50
2018-09-25T07:06:21.821Z,5.60
2018-09-25T07:08:56.341Z,5.70
2018-09-25T07:11:30.809Z,5.80
2018-09-25T07:14:05.167Z,5.90
2018-09-25T07:16:39.610Z,6.00
2018-09-25T07:19:13.956Z,6.20
2018-09-25T07:21:49.646Z,6.30
2018-09-25T07:24:24.240Z,6.50
2018-09-25T07:26:58.685Z,6.70
2018-09-25T07:29:33.207Z,6.80
2018-09-25T07:32:07.746Z,6.90
2018-09-25T07:34:42.246Z,7.20
2018-09-25T07:37:16.642Z,7.40
2018-09-25T07:39:51.116Z,7.50
2018-09-25T07:42:30.349Z,7.60
2018-09-25T07:45:05.219Z,7.70
2018-09-25T07:47:39.633Z,7.80
2018-09-25T07:50:14.996Z,7.90
2018-09-25T07:52:49.760Z,8.00
2018-09-25T07:55:25.986Z,8.10
2018-09-25T07:58:00.354Z,8.20
2018-09-25T08:00:34.846Z,8.30
2018-09-25T08:03:09.624Z,8.30
2018-09-25T08:05:44.176Z,8.30
2018-09-25T08:08:18.697Z,8.40
2018-09-25T08:10:53.097Z,8.50
2018-09-25T08:13:27.630Z,8.60
2018-09-25T08:16:01.974Z,8.70
2018-09-25T08:18:37.818Z,8.80
2018-09-25T08:21:12.419Z,8.90
2018-09-25T08:23:47.049Z,9.00
2018-09-25T08:26:21.437Z,9.10
2018-09-25T08:28:55.933Z,9.30
2018-09-25T08:31:30.525Z,9.30
2018-09-25T08:34:05.013Z,9.40
2018-09-25T08:36:39.473Z,9.50
2018-09-25T08:39:15.072Z,9.50
2018-09-25T08:41:49.620Z,9.60
2018-09-25T08:44:23.992Z,9.70
2018-09-25T08:46:58.345Z,9.70
2018-09-25T08:49:32.829Z,9.80
2018-09-25T08:52:09.304Z,9.90
2018-09-25T08:54:44.637Z,10.10
2018-09-25T08:57:19.179Z,10.20
2018-09-25T08:59:53.954Z,10.30
2018-09-25T09:02:30.436Z,10.40
2018-09-25T09:05:05.060Z,10.50
2018-09-25T09:07:39.496Z,10.60
2018-09-25T09:10:17.436Z,10.60
2018-09-25T09:12:52.998Z,10.70
2018-09-25T09:15:29.748Z,11.00
2018-09-25T09:18:04.080Z,11.00
2018-09-25T09:20:39.596Z,11.10
2018-09-25T09:23:16.514Z,11.30
2018-09-25T09:25:50.998Z,11.40
2018-09-25T09:28:25.482Z,11.50
2018-09-25T09:30:59.851Z,11.60
2018-09-25T09:33:34.410Z,11.60
2018-09-25T09:36:09.131Z,11.60
2018-09-25T09:38:44.515Z,11.70
2018-09-25T09:41:18.983Z,11.70
2018-09-25T09:43:53.340Z,11.80
2018-09-25T09:46:28.225Z,11.90
2018-09-25T09:49:02.893Z,12.00
2018-09-25T09:51:37.382Z,12.10
2018-09-25T09:54:11.873Z,12.10
2018-09-25T09:56:46.247Z,12.20
2018-09-25T09:59:20.716Z,12.20
2018-09-25T10:01:55.199Z,12.30
2018-09-25T10:04:29.593Z,12.40
2018-09-25T10:07:04.138Z,12.50
2018-09-25T10:09:38.477Z,12.60
2018-09-25T10:12:13.069Z,12.60
2018-09-25T10:14:48.024Z,12.60
2018-09-25T10:17:23.510Z,12.60
2018-09-25T10:19:57.951Z,12.60
2018-09-25T10:22:32.673Z,12.60
2018-09-25T10:25:07.721Z,12.60
2018-09-25T10:27:42.161Z,12.60
2018-09-25T10:30:17.983Z,12.60
2018-09-25T10:32:52.450Z,12.60
2018-09-25T10:35:28.629Z,12.60
2018-09-25T10:38:03.184Z,12.70
2018-09-25T10:40:39.665Z,12.80
2018-09-25T10:43:14.284Z,12.80
2018-09-25T10:45:50.153Z,12.90
2018-09-25T10:48:24.816Z,12.90
2018-09-25T10:50:59.270Z,12.80
2018-09-25T10:53:33.817Z,12.80
2018-09-25T10:56:08.443Z,12.70
2018-09-25T10:58:42.796Z,12.70
2018-09-25T11:01:17.335Z,12.80
2018-09-25T11:03:58.738Z,12.90
2018-09-25T11:06:33.253Z,12.90
2018-09-25T11:09:07.713Z,12.90
2018-09-25T11:11:43.404Z,12.90
2018-09-25T11:14:17.841Z,13.10
2018-09-25T11:16:52.442Z,13.10
2018-09-25T11:19:26.970Z,13.20
2018-09-25T11:22:01.539Z,13.20
2018-09-25T11:24:35.964Z,13.20
2018-09-25T11:27:10.372Z,13.30
2018-09-25T11:29:44.834Z,13.30
2018-09-25T11:32:20.964Z,13.30
2018-09-25T11:34:55.511Z,13.30
2018-09-25T11:37:30.073Z,13.40
2018-09-25T11:40:04.617Z,13.50
2018-09-25T11:42:39.284Z,13.50
2018-09-25T11:45:13.701Z,13.50
2018-09-25T11:47:48.463Z,13.60
2018-09-25T11:50:24.535Z,13.60
2018-09-25T11:53:01.135Z,13.60
2018-09-25T11:55:35.811Z,13.60
2018-09-25T11:58:10.491Z,13.70
2018-09-25T12:00:45.117Z,13.80
2018-09-25T12:03:20.933Z,13.80
2018-09-25T12:05:59.186Z,13.80
2018-09-25T12:08:33.615Z,13.90
2018-09-25T12:11:08.270Z,14.00
2018-09-25T12:13:42.947Z,14.00
2018-09-25T12:16:17.423Z,14.10
2018-09-25T12:18:51.881Z,14.10
2018-09-25T12:21:26.367Z,14.20
2018-09-25T12:24:00.951Z,14.20
2018-09-25T12:26:35.740Z,14.20
2018-09-25T12:29:10.269Z,14.20
2018-09-25T12:31:45.210Z,14.20
2018-09-25T12:34:19.705Z,14.30
2018-09-25T12:36:54.211Z,14.40
2018-09-25T12:39:28.793Z,14.40
2018-09-25T12:42:03.624Z,14.50
2018-09-25T12:44:38.175Z,14.50
2018-09-25T12:47:13.327Z,14.60
2018-09-25T12:49:47.903Z,14.70
2018-09-25T12:52:22.968Z,14.70
2018-09-25T12:54:57.474Z,14.70
2018-09-25T12:57:32.094Z,14.80
2018-09-25T13:00:06.524Z,14.80
2018-09-25T13:02:41.247Z,15.00
2018-09-25T13:05:15.764Z,15.10
2018-09-25T13:07:50.294Z,15.10
2018-09-25T13:10:24.608Z,15.10
2018-09-25T13:12:59.211Z,15.10
2018-09-25T13:15:33.742Z,15.10
2018-09-25T13:18:08.332Z,15.20
2018-09-25T13:20:43.560Z,15.30
2018-09-25T13:23:18.070Z,15.40
2018-09-25T13:25:54.490Z,15.60
2018-09-25T13:28:28.853Z,15.80
2018-09-25T13:31:03.491Z,16.00
2018-09-25T13:33:37.857Z,16.00
2018-09-25T13:36:12.349Z,16.30
2018-09-25T13:38:46.921Z,16.70
2018-09-25T13:41:22.806Z,17.20
2018-09-25T13:43:57.648Z,18.20
2018-09-25T13:46:32.255Z,19.30
2018-09-25T13:49:06.842Z,20.60
2018-09-25T13:51:41.424Z,21.60
2018-09-25T13:54:16.012Z,22.40
2018-09-25T13:56:50.483Z,23.00
2018-09-25T13:59:24.975Z,23.30
2018-09-25T14:01:59.537Z,23.70
2018-09-25T14:04:33.943Z,23.40
2018-09-25T14:07:08.322Z,23.70
2018-09-25T14:09:42.682Z,24.10
2018-09-25T14:12:19.129Z,24.50
2018-09-25T14:14:53.643Z,24.80
2018-09-25T14:17:28.898Z,24.70
2018-09-25T14:20:03.292Z,24.80
2018-09-25T14:22:37.968Z,25.10
2018-09-25T14:25:12.397Z,24.80
2018-09-25T14:27:46.982Z,24.60
2018-09-25T14:30:21.334Z,24.50
2018-09-25T14:32:57.901Z,24.70
2018-09-25T14:35:32.471Z,24.30
2018-09-25T14:38:06.864Z,24.20
2018-09-25T14:40:41.447Z,24.40
2018-09-25T14:43:16.127Z,24.20
2018-09-25T14:45:50.505Z,24.60
2018-09-25T14:48:24.869Z,25.00
2018-09-25T14:51:00.845Z,25.10
2018-09-25T14:53:35.407Z,25.30
2018-09-25T14:56:10.302Z,25.50
2018-09-25T14:58:44.704Z,24.80
2018-09-25T15:01:19.168Z,24.90
2018-09-25T15:03:53.855Z,25.20
2018-09-25T15:06:28.400Z,25.50
2018-09-25T15:09:02.765Z,25.50
2018-09-25T15:11:37.336Z,25.80
2018-09-25T15:14:11.872Z,25.80
2018-09-25T15:16:46.276Z,25.40
2018-09-25T15:19:20.643Z,25.00
2018-09-25T15:21:56.435Z,25.10
2018-09-25T15:24:30.510Z,25.50
2018-09-25T15:27:05.047Z,25.90
2018-09-25T15:29:39.717Z,25.90
2018-09-25T15:32:15.885Z,24.90
2018-09-25T15:34:50.971Z,22.90
2018-09-25T15:37:25.396Z,21.60
2018-09-25T15:39:59.777Z,20.40
2018-09-25T15:42:34.430Z,19.20
2018-09-25T15:45:08.802Z,18.40
2018-09-25T15:47:43.311Z,17.70
2018-09-25T15:50:18.091Z,17.10
2018-09-25T15:52:52.706Z,16.70
2018-09-25T15:55:27.441Z,16.30
2018-09-25T15:58:02.851Z,16.00
2018-09-25T16:00:37.507Z,15.80
2018-09-25T16:03:12.391Z,15.50
2018-09-25T16:05:47.048Z,15.30
2018-09-25T16:08:22.769Z,15.20
2018-09-25T16:10:57.366Z,15.10
2018-09-25T16:13:31.956Z,15.00
2018-09-25T16:16:06.452Z,14.90
2018-09-25T16:18:40.873Z,14.80
2018-09-25T16:21:15.521Z,14.70
2018-09-25T16:23:50.764Z,14.70
2018-09-25T16:26:25.261Z,14.60
2018-09-25T16:28:59.910Z,14.50
2018-09-25T16:31:36.873Z,14.40
2018-09-25T16:34:11.283Z,14.30
2018-09-25T16:36:45.919Z,14.20
2018-09-25T16:39:20.978Z,14.10
2018-09-25T16:41:55.869Z,14.00
2018-09-25T16:44:30.546Z,13.90
2018-09-25T16:47:05.127Z,13.80
2018-09-25T16:49:39.695Z,13.70
2018-09-25T16:52:14.237Z,13.70
2018-09-25T16:54:48.856Z,13.60
2018-09-25T16:57:23.368Z,13.50
2018-09-25T16:59:57.995Z,13.40
2018-09-25T17:02:33.669Z,13.30
2018-09-25T17:05:08.416Z,13.20
2018-09-25T17:07:43.085Z,13.10
2018-09-25T17:10:18.976Z,13.00
2018-09-25T17:12:53.759Z,12.90
2018-09-25T17:15:29.663Z,12.80
2018-09-25T17:18:04.465Z,12.70
2018-09-25T17:20:42.591Z,12.70
2018-09-25T17:23:19.255Z,12.60
2018-09-25T17:25:55.970Z,12.50
2018-09-25T17:28:32.270Z,12.40
2018-09-25T17:31:09.187Z,12.40
2018-09-25T17:33:44.240Z,12.30
2018-09-25T17:36:19.041Z,12.20
2018-09-25T17:38:54.649Z,12.10
2018-09-25T17:41:30.871Z,12.00
2018-09-25T17:44:05.612Z,11.90
2018-09-25T17:46:41.605Z,11.80
2018-09-25T17:49:16.714Z,11.80
2018-09-25T17:51:51.512Z,11.70
2018-09-25T17:54:26.320Z,11.60
2018-09-25T17:57:03.800Z,11.60
2018-09-25T17:59:38.612Z,11.50
2018-09-25T18:02:13.550Z,11.50
2018-09-25T18:04:48.004Z,11.40
2018-09-25T18:07:22.509Z,11.40
2018-09-25T18:09:57.236Z,11.30
2018-09-25T18:12:32.623Z,11.20
2018-09-25T18:15:09.088Z,11.20
2018-09-25T18:17:43.801Z,11.20
2018-09-25T18:20:19.373Z,11.10
2018-09-25T18:22:56.410Z,11.00
2018-09-25T18:25:32.863Z,11.00
2018-09-25T18:28:07.609Z,10.90
2018-09-25T18:30:42.916Z,10.90
2018-09-25T18:33:18.354Z,10.80
2018-09-25T18:35:53.014Z,10.80
2018-09-25T18:38:27.422Z,10.80
2018-09-25T18:41:02.043Z,10.60
2018-09-25T18:43:36.540Z,10.30
2018-09-25T18:46:12.077Z,9.90
2018-09-25T18:48:46.814Z,9.70
2018-09-25T18:51:21.643Z,9.50
2018-09-25T18:53:56.157Z,9.20
2018-09-25T18:56:30.756Z,8.90
2018-09-25T18:59:05.297Z,8.60
2018-09-25T19:01:41.776Z,8.30
2018-09-25T19:04:17.011Z,8.10
2018-09-25T19:06:51.714Z,7.90
2018-09-25T19:09:26.685Z,7.80
2018-09-25T19:12:03.646Z,7.70
2018-09-25T19:14:38.276Z,7.80
2018-09-25T19:17:13.461Z,7.90
2018-09-25T19:19:48.752Z,8.00
2018-09-25T19:22:25.650Z,8.00
2018-09-25T19:25:00.223Z,7.80
2018-09-25T19:27:34.775Z,7.70
2018-09-25T19:30:12.704Z,7.60
2018-09-25T19:32:54.406Z,7.50
2018-09-25T19:35:29.732Z,7.40
2018-09-25T19:38:04.246Z,7.40
2018-09-25T19:40:38.660Z,7.30
2018-09-25T19:43:13.422Z,7.20
2018-09-25T19:45:48.382Z,7.10
2018-09-25T19:48:22.842Z,7.00
2018-09-25T19:50:59.035Z,7.00
2018-09-25T19:53:33.594Z,7.00
2018-09-25T19:56:08.240Z,6.80
2018-09-25T19:58:42.967Z,6.70
2018-09-25T20:01:17.738Z,6.60
2018-09-25T20:03:53.352Z,6.60
2018-09-25T20:06:28.171Z,6.60
2018-09-25T20:12:33.367Z,6.40
2018-09-25T20:15:07.881Z,6.30
2018-09-25T20:20:24.078Z,6.30
2018-09-25T20:22:58.727Z,6.30
2018-09-25T20:25:33.265Z,6.10
2018-09-25T20:28:08.330Z,6.00
2018-09-25T20:30:42.834Z,5.90
2018-09-25T20:33:26.212Z,5.80
2018-09-25T20:36:00.677Z,5.70
2018-09-25T20:38:35.152Z,5.70
2018-09-25T20:41:10.579Z,5.80
2018-09-25T20:43:46.456Z,5.80
2018-09-25T20:46:21.434Z,5.70
2018-09-25T20:48:56.230Z,5.60
2018-09-25T20:51:31.522Z,5.60
2018-09-25T20:54:07.595Z,5.60
2018-09-25T20:56:43.966Z,5.60
2018-09-25T20:59:18.756Z,5.60
2018-09-25T21:01:53.483Z,5.60
2018-09-25T21:04:36.805Z,5.50
2018-09-25T21:07:11.187Z,5.30
2018-09-25T21:50:12.828Z,4.70
2018-09-25T21:52:51.731Z,4.60
2018-09-25T21:55:26.934Z,4.60
2018-09-25T21:58:01.898Z,4.70
2018-09-25T22:00:37.456Z,4.60
2018-09-25T22:03:14.226Z,4.60
2018-09-25T22:05:49.840Z,4.50
2018-09-25T22:08:25.414Z,4.50
2018-09-25T22:11:01.107Z,4.50
2018-09-25T22:13:35.629Z,4.40
2018-09-25T22:16:10.010Z,4.40
2018-09-25T22:18:46.228Z,4.30
2018-09-25T22:21:21.413Z,4.30
2018-09-25T22:23:56.657Z,4.30
2018-09-25T22:26:30.999Z,4.30
2018-09-25T22:29:05.326Z,4.30
2018-09-25T22:31:41.235Z,4.10
2018-09-25T22:34:15.770Z,4.10
2018-09-25T22:36:50.398Z,4.00
2018-09-25T22:39:24.891Z,4.00
2018-09-25T22:41:59.434Z,4.00
2018-09-25T22:44:33.832Z,3.90
2018-09-25T22:47:08.716Z,3.90
2018-09-25T22:49:43.074Z,3.90
2018-09-25T22:52:17.733Z,3.90
2018-09-25T22:54:52.237Z,4.00
2018-09-25T22:57:27.246Z,4.00
2018-09-25T23:00:02.695Z,4.00
2018-09-25T23:02:37.308Z,4.10
2018-09-25T23:05:11.826Z,4.10
2018-09-25T23:07:46.378Z,4.30
2018-09-25T23:10:20.799Z,4.20
2018-09-25T23:12:59.034Z,4.00
2018-09-25T23:15:33.660Z,3.90
2018-09-25T23:18:09.107Z,3.80
2018-09-25T23:20:43.616Z,3.70
2018-09-25T23:23:18.832Z,3.70
2018-09-25T23:25:53.227Z,3.60
2018-09-25T23:28:27.606Z,3.60
2018-09-25T23:31:02.691Z,3.50
2018-09-25T23:33:37.244Z,3.40
2018-09-25T23:36:11.611Z,3.50
2018-09-25T23:38:46.187Z,3.60
2018-09-25T23:43:22.648Z,3.60
2018-09-25T23:45:56.866Z,3.70
2018-09-25T23:50:32.439Z,3.80
2018-09-25T23:53:41.026Z,3.70
2018-09-25T23:56:31.278Z,3.40
2018-09-25T23:59:20.082Z,3.30
